sensor_id;sensor_type;location;lat;lon;timestamp;P1;durP1;ratioP1;P2;durP2;ratioP2
8632;SDS011;4354;49.832;10.746;2022-08-02T00:00:32;14.10;;;12.63;;
8632;SDS011;4354;49.832;10.746;2022-08-02T00:02:59;14.02;;;10.77;;
8632;SDS011;4354;49.832;10.746;2022-08-02T00:05:26;11.57;;;10.48;;
8632;SDS011;4354;49.832;10.746;2022-08-02T00:07:52;11.48;;;10.38;;
8632;SDS011;4354;49.832;10.746;2022-08-02T00:10:19;11.43;;;10.32;;
8632;SDS011;4354;49.832;10.746;2022-08-02T00:12:46;12.05;;;10.95;;
8632;SDS011;4354;49.832;10.746;2022-08-02T00:15:14;11.70;;;10.50;;
8632;SDS011;4354;49.832;10.746;2022-08-02T00:17:42;10.50;;;9.50;;
8632;SDS011;4354;49.832;10.746;2022-08-02T00:20:09;11.15;;;10.05;;
8632;SDS011;4354;49.832;10.746;2022-08-02T00:22:37;13.35;;;9.82;;
8632;SDS011;4354;49.832;10.746;2022-08-02T00:25:04;10.88;;;9.80;;
8632;SDS011;4354;49.832;10.746;2022-08-02T00:27:31;10.07;;;9.10;;
8632;SDS011;4354;49.832;10.746;2022-08-02T00:29:58;9.98;;;8.98;;
8632;SDS011;4354;49.832;10.746;2022-08-02T00:32:25;9.45;;;8.60;;
8632;SDS011;4354;49.832;10.746;2022-08-02T00:34:52;9.18;;;8.32;;
8632;SDS011;4354;49.832;10.746;2022-08-02T00:37:19;9.93;;;8.90;;
8632;SDS011;4354;49.832;10.746;2022-08-02T00:39:45;10.02;;;9.07;;
8632;SDS011;4354;49.832;10.746;2022-08-02T00:42:13;9.27;;;8.38;;
8632;SDS011;4354;49.832;10.746;2022-08-02T00:44:40;8.43;;;7.57;;
8632;SDS011;4354;49.832;10.746;2022-08-02T00:47:07;8.05;;;7.35;;
8632;SDS011;4354;49.832;10.746;2022-08-02T00:49:34;8.73;;;7.82;;
8632;SDS011;4354;49.832;10.746;2022-08-02T00:52:01;9.15;;;8.10;;
8632;SDS011;4354;49.832;10.746;2022-08-02T00:54:28;8.60;;;7.90;;
8632;SDS011;4354;49.832;10.746;2022-08-02T00:56:55;8.82;;;7.93;;
8632;SDS011;4354;49.832;10.746;2022-08-02T00:59:22;7.78;;;7.07;;
8632;SDS011;4354;49.832;10.746;2022-08-02T01:01:49;8.32;;;7.47;;
8632;SDS011;4354;49.832;10.746;2022-08-02T01:04:23;6.90;;;6.30;;
8632;SDS011;4354;49.832;10.746;2022-08-02T01:06:55;9.00;;;7.00;;
8632;SDS011;4354;49.832;10.746;2022-08-02T01:09:22;7.88;;;7.13;;
8632;SDS011;4354;49.832;10.746;2022-08-02T01:11:49;8.02;;;7.32;;
8632;SDS011;4354;49.832;10.746;2022-08-02T01:14:16;7.70;;;7.00;;
8632;SDS011;4354;49.832;10.746;2022-08-02T01:16:49;8.13;;;7.43;;
8632;SDS011;4354;49.832;10.746;2022-08-02T01:33:51;7.75;;;6.95;;
8632;SDS011;4354;49.832;10.746;2022-08-02T01:36:25;7.23;;;6.53;;
8632;SDS011;4354;49.832;10.746;2022-08-02T01:39:05;8.10;;;7.30;;
8632;SDS011;4354;49.832;10.746;2022-08-02T01:41:52;6.97;;;6.27;;
8632;SDS011;4354;49.832;10.746;2022-08-02T01:44:24;8.00;;;7.13;;
8632;SDS011;4354;49.832;10.746;2022-08-02T01:46:53;7.00;;;6.40;;
8632;SDS011;4354;49.832;10.746;2022-08-02T01:49:26;7.20;;;6.20;;
8632;SDS011;4354;49.832;10.746;2022-08-02T01:51:55;7.00;;;6.40;;
8632;SDS011;4354;49.832;10.746;2022-08-02T01:54:42;7.70;;;6.30;;
8632;SDS011;4354;49.832;10.746;2022-08-02T01:57:11;7.27;;;6.23;;
8632;SDS011;4354;49.832;10.746;2022-08-02T01:59:40;6.57;;;5.87;;
8632;SDS011;4354;49.832;10.746;2022-08-02T02:02:09;6.33;;;5.83;;
8632;SDS011;4354;49.832;10.746;2022-08-02T02:04:38;6.27;;;5.77;;
8632;SDS011;4354;49.832;10.746;2022-08-02T02:07:05;5.97;;;5.47;;
8632;SDS011;4354;49.832;10.746;2022-08-02T02:09:34;6.20;;;5.60;;
8632;SDS011;4354;49.832;10.746;2022-08-02T02:12:16;6.97;;;6.27;;
8632;SDS011;4354;49.832;10.746;2022-08-02T02:14:45;6.53;;;6.03;;
8632;SDS011;4354;49.832;10.746;2022-08-02T02:17:17;6.93;;;5.90;;
8632;SDS011;4354;49.832;10.746;2022-08-02T02:20:06;6.97;;;6.27;;
8632;SDS011;4354;49.832;10.746;2022-08-02T02:22:34;6.37;;;5.60;;
8632;SDS011;4354;49.832;10.746;2022-08-02T02:25:02;7.03;;;5.70;;
8632;SDS011;4354;49.832;10.746;2022-08-02T02:27:31;5.47;;;5.00;;
8632;SDS011;4354;49.832;10.746;2022-08-02T02:30:03;6.87;;;6.10;;
8632;SDS011;4354;49.832;10.746;2022-08-02T02:32:31;6.60;;;5.70;;
8632;SDS011;4354;49.832;10.746;2022-08-02T02:34:59;6.73;;;5.73;;
8632;SDS011;4354;49.832;10.746;2022-08-02T02:37:28;6.13;;;5.53;;
8632;SDS011;4354;49.832;10.746;2022-08-02T02:39:57;7.17;;;6.57;;
8632;SDS011;4354;49.832;10.746;2022-08-02T02:42:29;6.80;;;5.63;;
8632;SDS011;4354;49.832;10.746;2022-08-02T02:44:58;6.07;;;5.57;;
8632;SDS011;4354;49.832;10.746;2022-08-02T02:47:27;6.37;;;5.80;;
8632;SDS011;4354;49.832;10.746;2022-08-02T02:50:06;7.07;;;5.97;;
8632;SDS011;4354;49.832;10.746;2022-08-02T02:52:35;6.93;;;5.70;;
8632;SDS011;4354;49.832;10.746;2022-08-02T02:55:03;6.43;;;5.90;;
8632;SDS011;4354;49.832;10.746;2022-08-02T02:57:31;6.40;;;5.80;;
8632;SDS011;4354;49.832;10.746;2022-08-02T02:59:59;5.53;;;5.13;;
8632;SDS011;4354;49.832;10.746;2022-08-02T03:02:26;6.73;;;6.13;;
8632;SDS011;4354;49.832;10.746;2022-08-02T03:04:54;8.00;;;6.17;;
8632;SDS011;4354;49.832;10.746;2022-08-02T03:07:23;8.53;;;5.73;;
8632;SDS011;4354;49.832;10.746;2022-08-02T03:09:51;7.00;;;5.67;;
8632;SDS011;4354;49.832;10.746;2022-08-02T03:12:20;6.83;;;6.13;;
8632;SDS011;4354;49.832;10.746;2022-08-02T03:14:56;6.70;;;6.00;;
8632;SDS011;4354;49.832;10.746;2022-08-02T03:17:24;6.17;;;5.30;;
8632;SDS011;4354;49.832;10.746;2022-08-02T03:19:52;7.30;;;6.03;;
8632;SDS011;4354;49.832;10.746;2022-08-02T03:22:18;7.13;;;6.20;;
8632;SDS011;4354;49.832;10.746;2022-08-02T03:24:45;6.77;;;6.07;;
8632;SDS011;4354;49.832;10.746;2022-08-02T03:27:12;6.47;;;5.87;;
8632;SDS011;4354;49.832;10.746;2022-08-02T03:29:39;6.40;;;5.80;;
8632;SDS011;4354;49.832;10.746;2022-08-02T03:32:05;6.10;;;5.47;;
8632;SDS011;4354;49.832;10.746;2022-08-02T03:34:32;7.03;;;5.60;;
8632;SDS011;4354;49.832;10.746;2022-08-02T03:36:59;6.83;;;6.17;;
8632;SDS011;4354;49.832;10.746;2022-08-02T03:39:27;6.67;;;5.53;;
8632;SDS011;4354;49.832;10.746;2022-08-02T03:41:54;6.83;;;5.90;;
8632;SDS011;4354;49.832;10.746;2022-08-02T03:44:21;6.17;;;5.37;;
8632;SDS011;4354;49.832;10.746;2022-08-02T03:46:50;6.03;;;5.47;;
8632;SDS011;4354;49.832;10.746;2022-08-02T03:49:18;5.67;;;5.17;;
8632;SDS011;4354;49.832;10.746;2022-08-02T03:51:46;5.80;;;5.30;;
8632;SDS011;4354;49.832;10.746;2022-08-02T03:54:13;7.00;;;5.67;;
8632;SDS011;4354;49.832;10.746;2022-08-02T03:56:42;5.93;;;5.43;;
8632;SDS011;4354;49.832;10.746;2022-08-02T03:59:09;6.20;;;5.60;;
8632;SDS011;4354;49.832;10.746;2022-08-02T04:01:39;6.53;;;4.80;;
8632;SDS011;4354;49.832;10.746;2022-08-02T04:04:06;5.83;;;4.87;;
8632;SDS011;4354;49.832;10.746;2022-08-02T04:06:33;6.13;;;5.53;;
8632;SDS011;4354;49.832;10.746;2022-08-02T04:09:05;6.33;;;4.80;;
8632;SDS011;4354;49.832;10.746;2022-08-02T04:11:32;7.40;;;4.90;;
8632;SDS011;4354;49.832;10.746;2022-08-02T04:14:03;6.90;;;5.77;;
8632;SDS011;4354;49.832;10.746;2022-08-02T04:19:43;5.70;;;5.00;;
8632;SDS011;4354;49.832;10.746;2022-08-02T04:22:24;5.17;;;4.57;;
8632;SDS011;4354;49.832;10.746;2022-08-02T04:24:57;5.63;;;5.13;;
8632;SDS011;4354;49.832;10.746;2022-08-02T04:27:27;6.07;;;4.70;;
8632;SDS011;4354;49.832;10.746;2022-08-02T04:30:16;6.93;;;4.93;;
8632;SDS011;4354;49.832;10.746;2022-08-02T04:32:43;7.57;;;4.73;;
8632;SDS011;4354;49.832;10.746;2022-08-02T04:35:11;4.93;;;4.43;;
8632;SDS011;4354;49.832;10.746;2022-08-02T04:37:46;5.67;;;5.07;;
8632;SDS011;4354;49.832;10.746;2022-08-02T04:40:34;4.70;;;4.30;;
8632;SDS011;4354;49.832;10.746;2022-08-02T04:43:01;4.70;;;4.30;;
8632;SDS011;4354;49.832;10.746;2022-08-02T04:45:28;4.73;;;4.20;;
8632;SDS011;4354;49.832;10.746;2022-08-02T04:47:55;4.97;;;4.10;;
8632;SDS011;4354;49.832;10.746;2022-08-02T04:50:31;4.70;;;4.22;;
8632;SDS011;4354;49.832;10.746;2022-08-02T04:52:58;4.90;;;4.32;;
8632;SDS011;4354;49.832;10.746;2022-08-02T04:55:25;4.40;;;4.00;;
8632;SDS011;4354;49.832;10.746;2022-08-02T04:57:54;5.05;;;4.32;;
8632;SDS011;4354;49.832;10.746;2022-08-02T05:00:23;8.02;;;4.18;;
8632;SDS011;4354;49.832;10.746;2022-08-02T05:02:51;4.72;;;4.22;;
8632;SDS011;4354;49.832;10.746;2022-08-02T05:05:18;4.10;;;3.80;;
8632;SDS011;4354;49.832;10.746;2022-08-02T05:07:45;4.10;;;3.80;;
8632;SDS011;4354;49.832;10.746;2022-08-02T05:10:12;4.82;;;3.63;;
8632;SDS011;4354;49.832;10.746;2022-08-02T05:12:39;3.63;;;3.33;;
8632;SDS011;4354;49.832;10.746;2022-08-02T05:15:07;3.75;;;3.45;;
8632;SDS011;4354;49.832;10.746;2022-08-02T05:17:38;5.00;;;3.78;;
8632;SDS011;4354;49.832;10.746;2022-08-02T05:20:13;4.35;;;3.88;;
8632;SDS011;4354;49.832;10.746;2022-08-02T05:22:41;5.28;;;3.83;;
8632;SDS011;4354;49.832;10.746;2022-08-02T05:25:08;3.60;;;3.30;;
8632;SDS011;4354;49.832;10.746;2022-08-02T05:27:35;5.40;;;3.78;;
8632;SDS011;4354;49.832;10.746;2022-08-02T05:30:03;3.90;;;3.47;;
8632;SDS011;4354;49.832;10.746;2022-08-02T05:32:30;4.30;;;3.25;;
8632;SDS011;4354;49.832;10.746;2022-08-02T05:34:58;3.80;;;3.47;;
8632;SDS011;4354;49.832;10.746;2022-08-02T05:37:27;4.30;;;3.40;;
8632;SDS011;4354;49.832;10.746;2022-08-02T05:39:57;4.00;;;3.70;;
8632;SDS011;4354;49.832;10.746;2022-08-02T05:42:26;5.15;;;3.33;;
8632;SDS011;4354;49.832;10.746;2022-08-02T05:44:56;3.30;;;3.05;;
8632;SDS011;4354;49.832;10.746;2022-08-02T05:47:23;4.35;;;3.20;;
8632;SDS011;4354;49.832;10.746;2022-08-02T05:49:50;4.00;;;3.63;;
8632;SDS011;4354;49.832;10.746;2022-08-02T05:52:18;6.00;;;3.45;;
8632;SDS011;4354;49.832;10.746;2022-08-02T05:54:53;3.03;;;2.80;;
8632;SDS011;4354;49.832;10.746;2022-08-02T05:57:51;2.85;;;2.65;;
8632;SDS011;4354;49.832;10.746;2022-08-02T06:00:26;3.95;;;3.20;;
8632;SDS011;4354;49.832;10.746;2022-08-02T06:05:52;3.40;;;3.10;;
8632;SDS011;4354;49.832;10.746;2022-08-02T06:08:43;3.22;;;2.92;;
8632;SDS011;4354;49.832;10.746;2022-08-02T06:11:15;4.05;;;3.30;;
8632;SDS011;4354;49.832;10.746;2022-08-02T06:13:44;4.22;;;3.28;;
8632;SDS011;4354;49.832;10.746;2022-08-02T06:16:11;4.60;;;3.65;;
8632;SDS011;4354;49.832;10.746;2022-08-02T06:18:40;4.45;;;4.05;;
8632;SDS011;4354;49.832;10.746;2022-08-02T06:21:08;3.85;;;3.45;;
8632;SDS011;4354;49.832;10.746;2022-08-02T06:23:55;4.80;;;3.72;;
8632;SDS011;4354;49.832;10.746;2022-08-02T06:26:27;5.35;;;3.80;;
8632;SDS011;4354;49.832;10.746;2022-08-02T06:28:54;4.28;;;3.35;;
8632;SDS011;4354;49.832;10.746;2022-08-02T06:31:23;4.30;;;3.90;;
8632;SDS011;4354;49.832;10.746;2022-08-02T06:33:50;4.40;;;4.00;;
8632;SDS011;4354;49.832;10.746;2022-08-02T06:41:36;5.13;;;3.58;;
8632;SDS011;4354;49.832;10.746;2022-08-02T06:44:07;3.72;;;3.25;;
8632;SDS011;4354;49.832;10.746;2022-08-02T06:46:54;4.25;;;3.20;;
8632;SDS011;4354;49.832;10.746;2022-08-02T06:49:37;4.53;;;2.85;;
8632;SDS011;4354;49.832;10.746;2022-08-02T06:52:28;2.72;;;2.53;;
8632;SDS011;4354;49.832;10.746;2022-08-02T06:54:57;2.90;;;2.70;;
8632;SDS011;4354;49.832;10.746;2022-08-02T06:57:25;4.30;;;3.08;;
8632;SDS011;4354;49.832;10.746;2022-08-02T06:59:53;3.15;;;2.85;;
8632;SDS011;4354;49.832;10.746;2022-08-02T07:02:20;2.63;;;2.50;;
8632;SDS011;4354;49.832;10.746;2022-08-02T07:04:48;3.05;;;2.85;;
8632;SDS011;4354;49.832;10.746;2022-08-02T07:07:16;2.80;;;2.60;;
8632;SDS011;4354;49.832;10.746;2022-08-02T07:09:42;4.43;;;2.63;;
8632;SDS011;4354;49.832;10.746;2022-08-02T07:12:25;2.45;;;2.25;;
8632;SDS011;4354;49.832;10.746;2022-08-02T07:14:53;2.92;;;2.60;;
8632;SDS011;4354;49.832;10.746;2022-08-02T07:17:19;2.63;;;2.42;;
8632;SDS011;4354;49.832;10.746;2022-08-02T07:19:46;2.63;;;2.42;;
8632;SDS011;4354;49.832;10.746;2022-08-02T07:22:13;2.70;;;2.50;;
8632;SDS011;4354;49.832;10.746;2022-08-02T07:24:40;2.63;;;2.40;;
8632;SDS011;4354;49.832;10.746;2022-08-02T07:27:07;2.28;;;2.13;;
8632;SDS011;4354;49.832;10.746;2022-08-02T07:29:37;2.45;;;2.25;;
8632;SDS011;4354;49.832;10.746;2022-08-02T07:32:23;3.22;;;2.78;;
8632;SDS011;4354;49.832;10.746;2022-08-02T07:34:51;3.78;;;2.25;;
8632;SDS011;4354;49.832;10.746;2022-08-02T07:37:24;4.35;;;1.95;;
8632;SDS011;4354;49.832;10.746;2022-08-02T07:40:13;3.47;;;2.15;;
8632;SDS011;4354;49.832;10.746;2022-08-02T07:42:46;2.22;;;1.52;;
8632;SDS011;4354;49.832;10.746;2022-08-02T07:45:14;2.88;;;1.65;;
8632;SDS011;4354;49.832;10.746;2022-08-02T07:47:41;3.08;;;1.60;;
8632;SDS011;4354;49.832;10.746;2022-08-02T07:50:10;2.95;;;2.03;;
8632;SDS011;4354;49.832;10.746;2022-08-02T07:52:38;3.20;;;1.70;;
8632;SDS011;4354;49.832;10.746;2022-08-02T07:55:08;2.15;;;1.98;;
8632;SDS011;4354;49.832;10.746;2022-08-02T07:57:36;1.73;;;1.63;;
8632;SDS011;4354;49.832;10.746;2022-08-02T08:00:11;3.38;;;2.13;;
8632;SDS011;4354;49.832;10.746;2022-08-02T08:02:38;1.95;;;1.85;;
8632;SDS011;4354;49.832;10.746;2022-08-02T08:05:05;1.70;;;1.60;;
8632;SDS011;4354;49.832;10.746;2022-08-02T08:07:33;2.03;;;1.83;;
8632;SDS011;4354;49.832;10.746;2022-08-02T08:10:00;2.80;;;1.92;;
8632;SDS011;4354;49.832;10.746;2022-08-02T08:12:27;1.75;;;1.65;;
8632;SDS011;4354;49.832;10.746;2022-08-02T08:14:54;2.90;;;1.80;;
8632;SDS011;4354;49.832;10.746;2022-08-02T08:17:21;2.95;;;1.63;;
8632;SDS011;4354;49.832;10.746;2022-08-02T08:19:48;2.42;;;1.60;;
8632;SDS011;4354;49.832;10.746;2022-08-02T08:22:21;3.13;;;1.80;;
8632;SDS011;4354;49.832;10.746;2022-08-02T08:24:48;1.73;;;1.63;;
8632;SDS011;4354;49.832;10.746;2022-08-02T08:27:16;3.10;;;2.00;;
8632;SDS011;4354;49.832;10.746;2022-08-02T08:29:44;4.50;;;1.63;;
8632;SDS011;4354;49.832;10.746;2022-08-02T08:32:12;2.00;;;1.75;;
8632;SDS011;4354;49.832;10.746;2022-08-02T08:34:43;2.40;;;1.80;;
8632;SDS011;4354;49.832;10.746;2022-08-02T08:37:11;4.78;;;1.67;;
8632;SDS011;4354;49.832;10.746;2022-08-02T08:39:46;2.60;;;1.83;;
8632;SDS011;4354;49.832;10.746;2022-08-02T08:42:24;1.98;;;1.88;;
8632;SDS011;4354;49.832;10.746;2022-08-02T08:44:53;1.70;;;1.60;;
8632;SDS011;4354;49.832;10.746;2022-08-02T08:47:22;1.80;;;1.70;;
8632;SDS011;4354;49.832;10.746;2022-08-02T08:50:00;1.95;;;1.60;;
8632;SDS011;4354;49.832;10.746;2022-08-02T08:52:34;2.35;;;1.80;;
8632;SDS011;4354;49.832;10.746;2022-08-02T08:55:03;2.90;;;1.60;;
8632;SDS011;4354;49.832;10.746;2022-08-02T08:57:33;2.58;;;1.80;;
8632;SDS011;4354;49.832;10.746;2022-08-02T09:00:02;1.80;;;1.67;;
8632;SDS011;4354;49.832;10.746;2022-08-02T09:02:31;1.80;;;1.70;;
8632;SDS011;4354;49.832;10.746;2022-08-02T09:05:00;2.33;;;1.63;;
8632;SDS011;4354;49.832;10.746;2022-08-02T09:07:27;2.03;;;1.85;;
8632;SDS011;4354;49.832;10.746;2022-08-02T09:09:54;1.80;;;1.70;;
8632;SDS011;4354;49.832;10.746;2022-08-02T09:12:20;2.30;;;1.60;;
8632;SDS011;4354;49.832;10.746;2022-08-02T09:14:50;1.70;;;1.60;;
8632;SDS011;4354;49.832;10.746;2022-08-02T09:17:18;3.75;;;1.90;;
8632;SDS011;4354;49.832;10.746;2022-08-02T09:19:47;2.75;;;1.67;;
8632;SDS011;4354;49.832;10.746;2022-08-02T09:22:32;1.67;;;1.58;;
8632;SDS011;4354;49.832;10.746;2022-08-02T09:24:58;3.58;;;1.98;;
8632;SDS011;4354;49.832;10.746;2022-08-02T09:27:26;2.03;;;1.92;;
8632;SDS011;4354;49.832;10.746;2022-08-02T09:30:01;2.30;;;2.10;;
8632;SDS011;4354;49.832;10.746;2022-08-02T09:32:45;2.53;;;1.83;;
8632;SDS011;4354;49.832;10.746;2022-08-02T09:35:28;2.85;;;1.80;;
8632;SDS011;4354;49.832;10.746;2022-08-02T09:38:17;3.25;;;2.10;;
8632;SDS011;4354;49.832;10.746;2022-08-02T09:40:43;2.20;;;2.00;;
8632;SDS011;4354;49.832;10.746;2022-08-02T09:43:10;2.45;;;1.80;;
8632;SDS011;4354;49.832;10.746;2022-08-02T09:45:37;2.20;;;2.10;;
8632;SDS011;4354;49.832;10.746;2022-08-02T09:48:07;2.47;;;1.95;;
8632;SDS011;4354;49.832;10.746;2022-08-02T09:50:35;3.05;;;2.10;;
8632;SDS011;4354;49.832;10.746;2022-08-02T09:53:04;2.00;;;1.80;;
8632;SDS011;4354;49.832;10.746;2022-08-02T09:55:31;3.25;;;1.95;;
8632;SDS011;4354;49.832;10.746;2022-08-02T09:57:59;2.15;;;1.98;;
8632;SDS011;4354;49.832;10.746;2022-08-02T10:00:55;2.33;;;2.20;;
8632;SDS011;4354;49.832;10.746;2022-08-02T10:03:24;2.80;;;2.30;;
8632;SDS011;4354;49.832;10.746;2022-08-02T10:06:00;3.88;;;2.70;;
8632;SDS011;4354;49.832;10.746;2022-08-02T10:08:29;2.30;;;2.10;;
8632;SDS011;4354;49.832;10.746;2022-08-02T10:10:59;2.95;;;2.28;;
8632;SDS011;4354;49.832;10.746;2022-08-02T10:15:57;2.05;;;1.88;;
8632;SDS011;4354;49.832;10.746;2022-08-02T10:18:25;2.90;;;2.10;;
8632;SDS011;4354;49.832;10.746;2022-08-02T10:21:05;2.80;;;2.28;;
8632;SDS011;4354;49.832;10.746;2022-08-02T10:23:37;3.10;;;2.28;;
8632;SDS011;4354;49.832;10.746;2022-08-02T10:26:05;3.15;;;2.00;;
8632;SDS011;4354;49.832;10.746;2022-08-02T10:28:33;1.67;;;1.58;;
8632;SDS011;4354;49.832;10.746;2022-08-02T10:31:01;2.17;;;2.08;;
8632;SDS011;4354;49.832;10.746;2022-08-02T10:33:31;2.78;;;1.90;;
8632;SDS011;4354;49.832;10.746;2022-08-02T10:36:01;3.88;;;1.90;;
8632;SDS011;4354;49.832;10.746;2022-08-02T10:38:33;1.98;;;1.77;;
8632;SDS011;4354;49.832;10.746;2022-08-02T10:41:03;1.90;;;1.73;;
8632;SDS011;4354;49.832;10.746;2022-08-02T10:52:03;1.77;;;1.67;;
8632;SDS011;4354;49.832;10.746;2022-08-02T10:57:38;2.83;;;2.60;;
8632;SDS011;4354;49.832;10.746;2022-08-02T11:00:13;3.13;;;1.90;;
8632;SDS011;4354;49.832;10.746;2022-08-02T11:02:51;2.15;;;1.95;;
8632;SDS011;4354;49.832;10.746;2022-08-02T11:05:31;2.20;;;2.10;;
8632;SDS011;4354;49.832;10.746;2022-08-02T11:08:18;2.58;;;2.10;;
8632;SDS011;4354;49.832;10.746;2022-08-02T11:10:46;4.55;;;2.40;;
8632;SDS011;4354;49.832;10.746;2022-08-02T11:13:14;2.42;;;1.95;;
8632;SDS011;4354;49.832;10.746;2022-08-02T11:18:15;2.28;;;1.77;;
8632;SDS011;4354;49.832;10.746;2022-08-02T11:20:43;4.78;;;2.15;;
8632;SDS011;4354;49.832;10.746;2022-08-02T11:28:56;2.72;;;2.05;;
8632;SDS011;4354;49.832;10.746;2022-08-02T11:31:25;2.42;;;1.98;;
8632;SDS011;4354;49.832;10.746;2022-08-02T11:33:53;2.35;;;2.13;;
8632;SDS011;4354;49.832;10.746;2022-08-02T11:36:20;2.08;;;1.77;;
8632;SDS011;4354;49.832;10.746;2022-08-02T11:38:48;2.40;;;2.22;;
8632;SDS011;4354;49.832;10.746;2022-08-02T11:41:18;1.70;;;1.60;;
8632;SDS011;4354;49.832;10.746;2022-08-02T11:44:06;2.97;;;2.20;;
8632;SDS011;4354;49.832;10.746;2022-08-02T11:46:32;2.97;;;1.92;;
8632;SDS011;4354;49.832;10.746;2022-08-02T11:49:15;5.53;;;1.80;;
8632;SDS011;4354;49.832;10.746;2022-08-02T11:52:00;1.77;;;1.67;;
8632;SDS011;4354;49.832;10.746;2022-08-02T11:54:33;3.15;;;1.90;;
8632;SDS011;4354;49.832;10.746;2022-08-02T11:57:13;2.40;;;2.00;;
8632;SDS011;4354;49.832;10.746;2022-08-02T11:59:47;2.95;;;1.73;;
8632;SDS011;4354;49.832;10.746;2022-08-02T12:02:15;3.50;;;1.67;;
8632;SDS011;4354;49.832;10.746;2022-08-02T12:04:50;2.00;;;1.77;;
8632;SDS011;4354;49.832;10.746;2022-08-02T12:07:32;2.42;;;1.60;;
8632;SDS011;4354;49.832;10.746;2022-08-02T12:10:03;2.00;;;1.90;;
8632;SDS011;4354;49.832;10.746;2022-08-02T12:20:55;1.80;;;1.70;;
8632;SDS011;4354;49.832;10.746;2022-08-02T12:23:23;2.83;;;2.00;;
8632;SDS011;4354;49.832;10.746;2022-08-02T12:26:03;2.30;;;2.10;;
8632;SDS011;4354;49.832;10.746;2022-08-02T12:28:32;2.08;;;1.95;;
8632;SDS011;4354;49.832;10.746;2022-08-02T12:31:00;2.60;;;2.13;;
8632;SDS011;4354;49.832;10.746;2022-08-02T12:33:28;5.63;;;2.00;;
8632;SDS011;4354;49.832;10.746;2022-08-02T12:36:16;3.17;;;2.00;;
8632;SDS011;4354;49.832;10.746;2022-08-02T12:38:53;2.60;;;2.00;;
8632;SDS011;4354;49.832;10.746;2022-08-02T12:41:25;3.28;;;1.98;;
8632;SDS011;4354;49.832;10.746;2022-08-02T12:43:57;1.85;;;1.70;;
8632;SDS011;4354;49.832;10.746;2022-08-02T12:46:25;3.15;;;2.05;;
8632;SDS011;4354;49.832;10.746;2022-08-02T12:48:52;1.48;;;1.38;;
8632;SDS011;4354;49.832;10.746;2022-08-02T12:51:38;1.67;;;1.58;;
8632;SDS011;4354;49.832;10.746;2022-08-02T12:54:28;1.88;;;1.70;;
8632;SDS011;4354;49.832;10.746;2022-08-02T12:57:08;2.90;;;1.80;;
8632;SDS011;4354;49.832;10.746;2022-08-02T12:59:40;1.92;;;1.70;;
8632;SDS011;4354;49.832;10.746;2022-08-02T13:02:10;1.60;;;1.50;;
8632;SDS011;4354;49.832;10.746;2022-08-02T13:04:39;3.80;;;1.63;;
8632;SDS011;4354;49.832;10.746;2022-08-02T13:07:06;2.10;;;1.60;;
8632;SDS011;4354;49.832;10.746;2022-08-02T13:09:37;2.78;;;1.77;;
8632;SDS011;4354;49.832;10.746;2022-08-02T13:12:05;1.70;;;1.60;;
8632;SDS011;4354;49.832;10.746;2022-08-02T13:14:33;2.45;;;1.73;;
8632;SDS011;4354;49.832;10.746;2022-08-02T13:17:07;2.75;;;1.40;;
8632;SDS011;4354;49.832;10.746;2022-08-02T13:19:35;2.45;;;1.60;;
8632;SDS011;4354;49.832;10.746;2022-08-02T13:22:02;1.75;;;1.63;;
8632;SDS011;4354;49.832;10.746;2022-08-02T13:24:36;1.60;;;1.30;;
8632;SDS011;4354;49.832;10.746;2022-08-02T13:27:21;3.33;;;1.50;;
8632;SDS011;4354;49.832;10.746;2022-08-02T13:29:49;2.90;;;1.30;;
8632;SDS011;4354;49.832;10.746;2022-08-02T13:32:16;1.63;;;1.52;;
8632;SDS011;4354;49.832;10.746;2022-08-02T13:34:43;1.90;;;1.70;;
8632;SDS011;4354;49.832;10.746;2022-08-02T13:37:10;1.50;;;1.40;;
8632;SDS011;4354;49.832;10.746;2022-08-02T13:39:37;1.63;;;1.52;;
8632;SDS011;4354;49.832;10.746;2022-08-02T13:42:04;1.63;;;1.48;;
8632;SDS011;4354;49.832;10.746;2022-08-02T13:44:32;1.40;;;1.30;;
8632;SDS011;4354;49.832;10.746;2022-08-02T13:47:00;2.60;;;1.58;;
8632;SDS011;4354;49.832;10.746;2022-08-02T13:49:27;1.70;;;1.60;;
8632;SDS011;4354;49.832;10.746;2022-08-02T13:52:14;1.50;;;1.40;;
8632;SDS011;4354;49.832;10.746;2022-08-02T13:54:41;4.72;;;1.60;;
8632;SDS011;4354;49.832;10.746;2022-08-02T13:57:08;2.53;;;1.70;;
8632;SDS011;4354;49.832;10.746;2022-08-02T13:59:35;4.25;;;1.70;;
8632;SDS011;4354;49.832;10.746;2022-08-02T14:02:22;1.50;;;1.35;;
8632;SDS011;4354;49.832;10.746;2022-08-02T14:04:52;1.85;;;1.38;;
8632;SDS011;4354;49.832;10.746;2022-08-02T14:07:18;1.67;;;1.40;;
8632;SDS011;4354;49.832;10.746;2022-08-02T14:09:46;1.95;;;1.20;;
8632;SDS011;4354;49.832;10.746;2022-08-02T14:12:13;2.45;;;1.50;;
8632;SDS011;4354;49.832;10.746;2022-08-02T14:14:41;2.92;;;1.52;;
8632;SDS011;4354;49.832;10.746;2022-08-02T14:17:07;1.98;;;1.30;;
8632;SDS011;4354;49.832;10.746;2022-08-02T14:19:36;2.15;;;1.30;;
8632;SDS011;4354;49.832;10.746;2022-08-02T14:22:05;2.42;;;1.40;;
8632;SDS011;4354;49.832;10.746;2022-08-02T14:24:37;1.40;;;1.30;;
8632;SDS011;4354;49.832;10.746;2022-08-02T14:27:05;1.75;;;1.45;;
8632;SDS011;4354;49.832;10.746;2022-08-02T14:29:32;1.40;;;1.30;;
8632;SDS011;4354;49.832;10.746;2022-08-02T14:31:59;3.05;;;1.20;;
8632;SDS011;4354;49.832;10.746;2022-08-02T14:34:31;1.20;;;1.10;;
8632;SDS011;4354;49.832;10.746;2022-08-02T14:37:15;1.42;;;1.33;;
8632;SDS011;4354;49.832;10.746;2022-08-02T14:39:42;1.38;;;1.27;;
8632;SDS011;4354;49.832;10.746;2022-08-02T14:42:26;1.45;;;1.35;;
8632;SDS011;4354;49.832;10.746;2022-08-02T14:44:52;2.35;;;1.05;;
8632;SDS011;4354;49.832;10.746;2022-08-02T14:47:19;2.88;;;1.35;;
8632;SDS011;4354;49.832;10.746;2022-08-02T14:49:46;2.15;;;1.20;;
8632;SDS011;4354;49.832;10.746;2022-08-02T14:52:15;1.35;;;1.25;;
8632;SDS011;4354;49.832;10.746;2022-08-02T14:54:42;2.95;;;1.23;;
8632;SDS011;4354;49.832;10.746;2022-08-02T14:57:12;1.30;;;1.20;;
8632;SDS011;4354;49.832;10.746;2022-08-02T14:59:38;2.55;;;1.35;;
8632;SDS011;4354;49.832;10.746;2022-08-02T15:02:07;2.55;;;1.27;;
8632;SDS011;4354;49.832;10.746;2022-08-02T15:04:38;1.25;;;1.15;;
8632;SDS011;4354;49.832;10.746;2022-08-02T15:07:08;2.65;;;1.10;;
8632;SDS011;4354;49.832;10.746;2022-08-02T15:09:35;1.13;;;1.05;;
8632;SDS011;4354;49.832;10.746;2022-08-02T15:12:05;1.85;;;1.25;;
8632;SDS011;4354;49.832;10.746;2022-08-02T15:14:33;3.35;;;1.23;;
8632;SDS011;4354;49.832;10.746;2022-08-02T15:16:59;2.83;;;1.40;;
8632;SDS011;4354;49.832;10.746;2022-08-02T15:19:26;1.38;;;1.27;;
8632;SDS011;4354;49.832;10.746;2022-08-02T15:22:13;2.50;;;1.30;;
8632;SDS011;4354;49.832;10.746;2022-08-02T15:24:44;2.28;;;1.25;;
8632;SDS011;4354;49.832;10.746;2022-08-02T15:27:11;1.38;;;1.27;;
8632;SDS011;4354;49.832;10.746;2022-08-02T15:29:39;2.03;;;1.10;;
8632;SDS011;4354;49.832;10.746;2022-08-02T15:32:07;2.83;;;1.23;;
8632;SDS011;4354;49.832;10.746;2022-08-02T15:34:34;2.78;;;1.33;;
8632;SDS011;4354;49.832;10.746;2022-08-02T15:37:01;2.13;;;1.50;;
8632;SDS011;4354;49.832;10.746;2022-08-02T15:39:28;1.80;;;1.30;;
8632;SDS011;4354;49.832;10.746;2022-08-02T15:41:55;1.40;;;1.20;;
8632;SDS011;4354;49.832;10.746;2022-08-02T15:44:22;2.35;;;1.20;;
8632;SDS011;4354;49.832;10.746;2022-08-02T15:46:50;1.30;;;0.90;;
8632;SDS011;4354;49.832;10.746;2022-08-02T15:49:18;1.63;;;1.00;;
8632;SDS011;4354;49.832;10.746;2022-08-02T15:51:46;2.58;;;1.10;;
8632;SDS011;4354;49.832;10.746;2022-08-02T15:54:12;2.08;;;1.23;;
8632;SDS011;4354;49.832;10.746;2022-08-02T15:56:39;2.00;;;1.27;;
8632;SDS011;4354;49.832;10.746;2022-08-02T15:59:06;2.17;;;1.10;;
8632;SDS011;4354;49.832;10.746;2022-08-02T16:01:33;3.40;;;1.20;;
8632;SDS011;4354;49.832;10.746;2022-08-02T16:04:05;1.77;;;1.10;;
8632;SDS011;4354;49.832;10.746;2022-08-02T16:06:32;1.45;;;1.05;;
8632;SDS011;4354;49.832;10.746;2022-08-02T16:09:00;1.42;;;1.30;;
8632;SDS011;4354;49.832;10.746;2022-08-02T16:11:27;2.65;;;1.30;;
8632;SDS011;4354;49.832;10.746;2022-08-02T16:13:54;2.97;;;1.02;;
8632;SDS011;4354;49.832;10.746;2022-08-02T16:16:25;2.30;;;1.20;;